메인 페이지
METAR-TAF:

METAR-TAF

공항 :

우아리 부메디엔 공항

알제, 알제리

위도: 36-43N, 경도: 003-15E, 고도: 25m

현재 날씨관측

예보는 27분 전, 10:00시(UTC)에 발표되었습니다.
서남서4kt남남서풍과 풍을 오가는
온도 14°C
습도 82%
기압 1025 hPa
시정: 8000m
고도 2000ft 상공 구름 조금
고도 20000ft 상공 구름 많음

METAR: DAAG 191000Z 24004KT 200V270 8000 FEW020 BKN200 14/11 Q1025

시각: 11:27 (10:27 UTC)

예보

예보는 5 시간 27분 전, 05:00시(UTC)에 발표되었습니다.
예보 대상 시간: 19일 06시부터 20일 06시까지 (UTC)
여러 방향의 바람 2kt
시정: 8000m
고도 2000ft 상공 구름 조금
확률 30%
19일 06시부터 19일 08시까지 (UTC)
시정: 3000m
박무
전환 중
19일 10시부터 19일 13시까지 (UTC)
북서12kt
일시적
19일 12시부터 19일 17시까지 (UTC)
북서15kt, 순간 최대 풍속 25kt
전환 중
19일 17시부터 19일 20시까지 (UTC)
남서5kt

TAF: DAAG 190500Z 1906/2006 VRB02KT 8000 FEW020 PROB30 1906/1908 3000 BR BECMG 1910/1913 31012KT TEMPO 1912/1917 31015G25KT BECMG 1917/1920 22005KT

4,000개 이상의 공항 관측 자료 및 예보 (METAR 및 TAF 보고).

지도상에서 검색 가능한 기상관측소가 노란 점과 빨간 점으로 표시되어 있습니다.

기상관측소 명을 보려면 표시 위로 마우스를 이동하세요.

날씨 관측과 예보를 보려면 클릭하세요.

지도 변경 : 확대하려면 엑스 표시가 있는 녹색 버튼, 축소하려면 빼기 표시가 있는 녹색 버튼, 다음 페이지의 지도를 보려면 녹색 화살표를 클릭하세요.


METAR-TAF: